Time;durP1;ratioP1;P1;durP2;ratioP2;P2;SDS_P1;SDS_P2;PMS_P1;PMS_P2;Temp;Humidity;BMP_temperature;BMP_pressure;BME280_temperature;BME280_humidity;BME280_pressure;Samples;Min_cycle;Max_cycle;Signal;HPM_P1;HPM_P2
2023/02/27 00:00:15;;;;;;;1.02;1.02;;;-0.80;99.90;;;;;;5054728;28;20249;-78
2023/02/27 00:02:43;;;;;;;0.50;0.50;;;-0.90;99.90;;;;;;5040524;28;20212;-78
2023/02/27 00:05:11;;;;;;;0.50;0.50;;;-0.90;99.90;;;;;;5045710;28;20321;-76
2023/02/27 00:07:38;;;;;;;0.50;0.50;;;-1.00;99.90;;;;;;5050904;28;20274;-79
2023/02/27 00:10:06;;;;;;;0.50;0.50;;;-1.00;99.90;;;;;;5053779;28;20194;-78
2023/02/27 00:12:36;;;;;;;0.50;0.50;;;-1.00;99.90;;;;;;5043970;28;20219;-78
2023/02/27 00:15:04;;;;;;;0.50;0.50;;;-1.00;99.90;;;;;;5048326;28;20222;-79
2023/02/27 00:17:31;;;;;;;0.50;0.50;;;-1.00;99.90;;;;;;5038907;28;20285;-78
2023/02/27 00:19:58;;;;;;;0.50;0.50;;;-1.00;99.90;;;;;;5043595;28;20290;-78
2023/02/27 00:22:25;;;;;;;0.50;0.50;;;-0.90;99.90;;;;;;5040290;28;20223;-78
2023/02/27 00:24:52;;;;;;;0.50;0.50;;;-0.90;99.90;;;;;;5038400;28;20211;-78
2023/02/27 00:27:19;;;;;;;0.50;0.50;;;-0.90;99.90;;;;;;5040950;28;20196;-78
2023/02/27 00:29:47;;;;;;;0.50;0.50;;;-1.00;99.90;;;;;;5045124;28;20262;-78
2023/02/27 00:32:14;;;;;;;0.50;0.50;;;-1.00;99.90;;;;;;5050951;28;20221;-78
2023/02/27 00:34:41;;;;;;;0.50;0.40;;;-1.00;99.90;;;;;;5048285;28;20246;-78
2023/02/27 00:37:08;;;;;;;0.50;0.50;;;-1.00;99.90;;;;;;5051180;28;20278;-78
2023/02/27 00:39:35;;;;;;;0.50;0.50;;;-1.00;99.90;;;;;;5045554;28;20293;-78
2023/02/27 00:42:02;;;;;;;0.50;0.40;;;-1.00;99.90;;;;;;5056911;28;20250;-78
2023/02/27 00:44:28;;;;;;;0.50;0.50;;;-1.00;99.90;;;;;;5040216;28;20310;-78
2023/02/27 00:46:57;;;;;;;0.50;0.50;;;-1.00;99.90;;;;;;5036104;28;20662;-77
2023/02/27 00:49:24;;;;;;;0.50;0.50;;;-1.00;99.90;;;;;;5043289;28;20221;-78
2023/02/27 00:51:51;;;;;;;4.72;4.53;;;-1.00;99.90;;;;;;5045575;28;20575;-78
2023/02/27 00:54:18;;;;;;;0.50;0.50;;;-1.00;99.90;;;;;;5036999;28;20241;-77
2023/02/27 00:56:44;;;;;;;0.50;0.50;;;-1.00;99.90;;;;;;5046618;28;20285;-78
2023/02/27 00:59:11;;;;;;;0.50;0.50;;;-0.90;99.90;;;;;;5048469;28;20239;-78
2023/02/27 01:01:38;;;;;;;0.50;0.50;;;-1.00;99.90;;;;;;5037894;28;20218;-77
2023/02/27 01:04:07;;;;;;;0.50;0.40;;;-1.10;99.90;;;;;;5036277;28;20199;-79
2023/02/27 01:06:34;;;;;;;0.50;0.45;;;-1.10;99.90;;;;;;5035201;28;20209;-77
2023/02/27 01:09:01;;;;;;;0.50;0.50;;;-1.10;99.90;;;;;;5043807;28;20350;-77
2023/02/27 01:11:27;;;;;;;0.50;0.50;;;-1.10;99.90;;;;;;5043842;28;20195;-78
2023/02/27 01:13:54;;;;;;;0.50;0.50;;;-1.00;99.90;;;;;;5038818;28;20273;-78
2023/02/27 01:16:21;;;;;;;0.50;0.50;;;-1.00;99.90;;;;;;5048609;28;20218;-79
2023/02/27 01:18:48;;;;;;;0.50;0.40;;;-1.10;99.90;;;;;;5037030;28;20681;-78
2023/02/27 01:21:17;;;;;;;0.50;0.50;;;-1.10;99.90;;;;;;5047883;28;20279;-79
2023/02/27 01:23:44;;;;;;;0.50;0.50;;;-1.10;99.90;;;;;;5050762;28;20280;-79
2023/02/27 01:26:11;;;;;;;0.50;0.50;;;-1.10;99.90;;;;;;5059653;28;20301;-76
2023/02/27 01:28:37;;;;;;;0.50;0.50;;;-1.10;99.90;;;;;;5050478;28;20237;-77
2023/02/27 01:31:05;;;;;;;0.50;0.50;;;-1.20;99.90;;;;;;5053036;28;20197;-77
2023/02/27 01:33:32;;;;;;;0.50;0.50;;;-1.20;99.90;;;;;;5052493;28;20195;-77
2023/02/27 01:35:59;;;;;;;0.50;0.50;;;-1.10;99.90;;;;;;5052007;28;20210;-79
2023/02/27 01:38:27;;;;;;;0.52;0.52;;;-1.20;99.90;;;;;;5044286;28;20195;-77
2023/02/27 01:40:54;;;;;;;0.90;0.80;;;-1.10;99.90;;;;;;5043096;28;20574;-79
2023/02/27 01:43:22;;;;;;;0.50;0.50;;;-1.00;99.90;;;;;;5060796;28;20207;-78
2023/02/27 01:45:50;;;;;;;0.50;0.50;;;-1.10;99.90;;;;;;5040960;28;20212;-78
2023/02/27 01:48:19;;;;;;;0.50;0.50;;;-1.10;99.90;;;;;;5052299;28;20194;-78
2023/02/27 01:50:51;;;;;;;0.50;0.50;;;-1.20;99.90;;;;;;5048953;28;20187;-79
2023/02/27 01:53:23;;;;;;;0.50;0.50;;;-1.20;99.90;;;;;;5051083;28;20285;-78
2023/02/27 01:55:53;;;;;;;0.50;0.50;;;-1.20;99.90;;;;;;5055379;28;20214;-78
2023/02/27 01:58:21;;;;;;;0.50;0.40;;;-1.20;99.90;;;;;;5045486;28;20190;-78
2023/02/27 02:00:48;;;;;;;0.50;0.40;;;-1.30;99.90;;;;;;5049515;28;20297;-79
2023/02/27 02:03:22;;;;;;;0.50;0.50;;;-1.30;99.90;;;;;;5047356;28;20254;-79
2023/02/27 02:05:51;;;;;;;0.50;0.50;;;-1.30;99.90;;;;;;5046953;28;20229;-78
2023/02/27 02:08:20;;;;;;;0.50;0.50;;;-1.40;99.90;;;;;;5053576;28;20354;-78
2023/02/27 02:10:50;;;;;;;0.50;0.45;;;-1.40;99.90;;;;;;5041226;28;20611;-78
2023/02/27 02:13:19;;;;;;;0.50;0.50;;;-1.40;99.90;;;;;;5043485;28;20191;-79
2023/02/27 02:15:52;;;;;;;0.50;0.50;;;-1.50;99.90;;;;;;5055915;28;20357;-78
2023/02/27 02:18:26;;;;;;;0.50;0.50;;;-1.50;99.90;;;;;;5043384;28;20245;-78
2023/02/27 02:21:25;;;;;;;0.50;0.45;;;-1.60;99.90;;;;;;5046847;28;20278;-77
2023/02/27 02:24:21;;;;;;;0.50;0.50;;;-1.60;99.90;;;;;;5046912;28;20194;-78
2023/02/27 02:26:57;;;;;;;0.50;0.50;;;-1.60;99.90;;;;;;5044676;28;20290;-79
2023/02/27 02:30:03;;;;;;;0.50;0.50;;;-1.70;99.90;;;;;;5037122;28;20186;-78
2023/02/27 02:33:03;;;;;;;0.50;0.50;;;-1.70;99.90;;;;;;5052437;28;20282;-78
2023/02/27 02:36:05;;;;;;;0.50;0.50;;;-1.80;99.90;;;;;;5041794;28;20302;-78
2023/02/27 02:39:04;;;;;;;0.50;0.45;;;-1.80;99.90;;;;;;5053759;28;20273;-78
2023/02/27 02:41:45;;;;;;;0.50;0.40;;;-1.80;99.90;;;;;;5040386;28;20214;-78
2023/02/27 02:44:23;;;;;;;0.50;0.50;;;-1.90;99.90;;;;;;5038574;28;20238;-78
2023/02/27 02:46:56;;;;;;;0.50;0.50;;;-1.90;99.90;;;;;;5055197;28;20237;-77
2023/02/27 02:49:27;;;;;;;0.50;0.50;;;-1.90;99.90;;;;;;5043147;28;20282;-78
2023/02/27 02:52:01;;;;;;;0.50;0.50;;;-1.90;99.90;;;;;;5056334;28;20187;-78
2023/02/27 02:54:39;;;;;;;0.50;0.50;;;-2.00;99.90;;;;;;5049028;28;20618;-78
2023/02/27 02:57:12;;;;;;;0.50;0.50;;;-1.90;99.90;;;;;;5051410;28;20221;-78
2023/02/27 02:59:44;;;;;;;0.50;0.50;;;-2.00;99.90;;;;;;5054267;28;20225;-77
2023/02/27 03:02:14;;;;;;;0.50;0.50;;;-2.00;99.90;;;;;;5046343;28;20219;-78
2023/02/27 03:04:46;;;;;;;0.50;0.47;;;-2.00;99.90;;;;;;5054286;28;20293;-77
2023/02/27 03:07:20;;;;;;;0.50;0.40;;;-2.00;99.90;;;;;;5060470;28;20223;-76
2023/02/27 03:09:52;;;;;;;0.50;0.50;;;-2.00;99.90;;;;;;5061723;28;20284;-78
2023/02/27 03:12:23;;;;;;;0.50;0.50;;;-2.00;99.90;;;;;;5053523;28;20227;-77
2023/02/27 03:14:54;;;;;;;0.50;0.50;;;-2.10;99.90;;;;;;5054626;28;20215;-77
2023/02/27 03:17:28;;;;;;;0.50;0.50;;;-2.10;99.90;;;;;;5041767;28;20282;-78
2023/02/27 03:19:58;;;;;;;0.50;0.50;;;-2.10;99.90;;;;;;5037286;28;20202;-79
2023/02/27 03:22:31;;;;;;;0.50;0.40;;;-2.00;99.90;;;;;;5051872;28;20649;-78
2023/02/27 03:25:02;;;;;;;0.50;0.40;;;-2.00;99.90;;;;;;5040271;28;20220;-78
2023/02/27 03:27:32;;;;;;;0.50;0.50;;;-2.10;99.90;;;;;;5053800;28;20191;-78
2023/02/27 03:30:04;;;;;;;0.50;0.50;;;-2.10;99.90;;;;;;5059389;28;20285;-78
2023/02/27 03:32:37;;;;;;;0.50;0.40;;;-2.10;99.90;;;;;;5052678;28;20226;-77
2023/02/27 03:35:06;;;;;;;0.50;0.50;;;-2.20;99.90;;;;;;5060223;28;20246;-78
2023/02/27 03:37:44;;;;;;;0.50;0.40;;;-2.20;99.90;;;;;;5072107;28;20209;-78
2023/02/27 03:40:23;;;;;;;0.50;0.40;;;-2.20;99.90;;;;;;5059764;28;20202;-79
2023/02/27 03:42:56;;;;;;;0.50;0.50;;;-2.10;99.90;;;;;;5049306;28;20719;-79
2023/02/27 03:45:29;;;;;;;0.65;0.65;;;-2.10;99.90;;;;;;5036932;28;20211;-78
2023/02/27 03:47:56;;;;;;;0.50;0.50;;;-2.10;99.90;;;;;;5036222;28;20207;-79
2023/02/27 03:50:23;;;;;;;0.50;0.50;;;-2.20;99.90;;;;;;5044926;28;20191;-79
2023/02/27 03:52:50;;;;;;;0.50;0.50;;;-2.20;99.90;;;;;;5054050;28;20182;-79
2023/02/27 03:55:21;;;;;;;0.50;0.50;;;-2.20;99.90;;;;;;5056116;28;20210;-79
2023/02/27 03:57:50;;;;;;;0.50;0.50;;;-2.30;99.90;;;;;;5039707;28;20713;-79
2023/02/27 04:00:19;;;;;;;0.50;0.50;;;-2.30;99.90;;;;;;5042743;28;20195;-78
2023/02/27 04:02:50;;;;;;;0.50;0.50;;;-2.30;99.90;;;;;;5036393;28;20639;-79
2023/02/27 04:05:17;;;;;;;0.50;0.50;;;-2.20;99.90;;;;;;5051173;28;20222;-79
2023/02/27 04:07:55;;;;;;;0.50;0.45;;;-2.20;99.90;;;;;;5035217;28;20191;-78
2023/02/27 04:10:40;;;;;;;0.50;0.50;;;-2.30;99.90;;;;;;5055554;28;20191;-78
2023/02/27 04:13:44;;;;;;;0.50;0.50;;;-2.20;99.90;;;;;;5035580;28;20187;-78
2023/02/27 04:16:33;;;;;;;0.50;0.50;;;-2.30;99.90;;;;;;4985800;28;20219;-78
2023/02/27 04:19:15;;;;;;;2.55;2.35;;;-2.30;99.90;;;;;;5036405;28;20197;-78
2023/02/27 04:21:49;;;;;;;0.50;0.50;;;-2.40;99.90;;;;;;5058155;28;20197;-79
2023/02/27 04:24:34;;;;;;;0.50;0.50;;;-2.30;99.90;;;;;;5045157;28;20273;-79
2023/02/27 04:27:08;;;;;;;0.50;0.50;;;-2.30;99.90;;;;;;5056478;28;20281;-78
2023/02/27 04:29:45;;;;;;;0.50;0.47;;;-2.30;99.90;;;;;;5049272;28;20216;-78
2023/02/27 04:32:18;;;;;;;0.50;0.50;;;-2.20;99.90;;;;;;5040443;28;20194;-78
2023/02/27 04:34:50;;;;;;;5.95;2.95;;;-2.30;99.90;;;;;;5039756;28;20250;-79
2023/02/27 04:37:24;;;;;;;0.50;0.50;;;-2.40;99.90;;;;;;5041542;28;20229;-78
2023/02/27 04:39:54;;;;;;;0.50;0.50;;;-2.40;99.90;;;;;;5039247;28;20219;-79
2023/02/27 04:42:26;;;;;;;0.50;0.50;;;-2.40;99.90;;;;;;5037415;28;20257;-78
2023/02/27 04:44:59;;;;;;;0.70;0.68;;;-2.40;99.90;;;;;;5046221;28;20574;-79
2023/02/27 04:47:30;;;;;;;0.50;0.40;;;-2.40;99.90;;;;;;5057075;28;20654;-79
2023/02/27 04:50:01;;;;;;;0.50;0.50;;;-2.50;99.90;;;;;;5056923;28;20214;-79
2023/02/27 04:52:31;;;;;;;0.50;0.50;;;-2.50;99.90;;;;;;5056596;28;20194;-79
2023/02/27 04:55:04;;;;;;;0.50;0.50;;;-2.50;99.90;;;;;;5046523;28;20225;-79
2023/02/27 04:57:37;;;;;;;0.50;0.40;;;-2.50;99.90;;;;;;5037282;28;20278;-79
2023/02/27 05:00:08;;;;;;;0.50;0.50;;;-2.50;99.90;;;;;;5057402;28;20676;-79
2023/02/27 05:02:39;;;;;;;0.50;0.50;;;-2.50;99.90;;;;;;5051059;28;20571;-79
2023/02/27 05:05:13;;;;;;;0.50;0.50;;;-2.50;99.90;;;;;;5037395;28;20297;-79
2023/02/27 05:07:44;;;;;;;0.50;0.50;;;-2.50;99.90;;;;;;5037743;28;20285;-79
2023/02/27 05:10:14;;;;;;;0.70;0.70;;;-2.50;99.90;;;;;;5029632;28;20196;-80
2023/02/27 05:12:49;;;;;;;0.50;0.50;;;-2.50;99.90;;;;;;5037663;28;20195;-79
2023/02/27 05:15:23;;;;;;;0.50;0.50;;;-2.40;99.90;;;;;;5049016;28;20209;-79
2023/02/27 05:17:58;;;;;;;0.50;0.50;;;-2.40;99.90;;;;;;5047892;28;20201;-79
2023/02/27 05:20:32;;;;;;;0.50;0.40;;;-2.40;99.90;;;;;;5037937;28;20622;-79
2023/02/27 05:23:04;;;;;;;0.50;0.50;;;-2.50;99.90;;;;;;5045659;28;20301;-78
2023/02/27 05:25:35;;;;;;;0.50;0.50;;;-2.50;99.90;;;;;;5036283;28;20586;-79
2023/02/27 05:28:07;;;;;;;0.50;0.50;;;-2.40;99.90;;;;;;5044488;28;20254;-78
2023/02/27 05:30:38;;;;;;;0.50;0.50;;;-2.50;99.90;;;;;;5051100;28;20211;-79
2023/02/27 05:33:12;;;;;;;0.50;0.50;;;-2.50;99.90;;;;;;5058033;28;20253;-79
2023/02/27 05:35:47;;;;;;;0.50;0.40;;;-2.50;99.90;;;;;;5052913;28;20223;-77
2023/02/27 05:38:19;;;;;;;0.50;0.50;;;-2.40;99.90;;;;;;5024643;28;20191;-78
2023/02/27 05:40:49;;;;;;;0.50;0.40;;;-2.40;99.90;;;;;;5038837;28;20194;-77
2023/02/27 05:43:21;;;;;;;0.75;0.75;;;-2.40;99.90;;;;;;5036850;28;20253;-78
2023/02/27 05:45:53;;;;;;;0.82;0.82;;;-2.30;99.90;;;;;;5053937;28;20297;-79
2023/02/27 05:48:25;;;;;;;0.50;0.50;;;-2.20;99.90;;;;;;5046137;28;20222;-80
2023/02/27 05:50:54;;;;;;;0.52;0.50;;;-2.30;99.90;;;;;;5046057;28;20216;-77
2023/02/27 05:53:24;;;;;;;0.50;0.47;;;-2.40;99.90;;;;;;5045777;28;20285;-79
2023/02/27 05:55:53;;;;;;;0.50;0.50;;;-2.40;99.90;;;;;;5048848;28;20273;-79
2023/02/27 05:58:27;;;;;;;0.50;0.50;;;-2.50;99.90;;;;;;5052346;28;20191;-79
2023/02/27 06:00:57;;;;;;;0.50;0.50;;;-2.50;99.90;;;;;;5058342;28;20193;-79
2023/02/27 06:03:24;;;;;;;0.50;0.50;;;-2.50;99.90;;;;;;5049262;28;20214;-77
2023/02/27 06:05:53;;;;;;;0.50;0.50;;;-2.50;99.90;;;;;;5043809;28;20247;-78
2023/02/27 06:08:21;;;;;;;0.50;0.50;;;-2.50;99.90;;;;;;5041991;28;20553;-78
2023/02/27 06:10:49;;;;;;;0.50;0.45;;;-2.40;99.90;;;;;;5051203;28;20229;-79
2023/02/27 06:13:16;;;;;;;0.50;0.50;;;-2.40;99.90;;;;;;5045384;28;20197;-78
2023/02/27 06:15:45;;;;;;;0.50;0.50;;;-2.50;99.90;;;;;;5052126;28;20677;-77
2023/02/27 06:18:13;;;;;;;0.50;0.50;;;-2.50;99.90;;;;;;5053159;28;20229;-79
2023/02/27 06:20:41;;;;;;;0.95;0.95;;;-2.50;99.90;;;;;;5055752;28;20286;-77
2023/02/27 06:23:09;;;;;;;0.50;0.40;;;-2.50;99.90;;;;;;5050182;28;20301;-76
2023/02/27 06:25:36;;;;;;;0.50;0.50;;;-2.60;99.90;;;;;;5049081;28;20233;-78
2023/02/27 06:28:04;;;;;;;0.50;0.50;;;-2.60;99.90;;;;;;5042633;28;20274;-79
2023/02/27 06:30:31;;;;;;;0.50;0.50;;;-2.60;99.90;;;;;;5046383;28;20193;-78
2023/02/27 06:32:59;;;;;;;0.50;0.50;;;-2.60;99.90;;;;;;5053003;28;20211;-79
2023/02/27 06:35:28;;;;;;;0.50;0.50;;;-2.60;99.90;;;;;;5043331;28;20211;-77
2023/02/27 06:37:55;;;;;;;0.50;0.50;;;-2.60;99.90;;;;;;5045342;28;20262;-80
2023/02/27 06:40:22;;;;;;;0.50;0.40;;;-2.50;99.90;;;;;;5057159;28;20672;-77
2023/02/27 06:42:49;;;;;;;0.50;0.50;;;-2.50;99.90;;;;;;5053457;28;20225;-78
2023/02/27 06:45:16;;;;;;;0.77;0.77;;;-2.40;99.90;;;;;;5036702;28;20254;-79
2023/02/27 06:47:43;;;;;;;0.50;0.45;;;-2.40;99.90;;;;;;5039797;28;20780;-76
2023/02/27 06:50:13;;;;;;;0.50;0.50;;;-2.30;99.90;;;;;;5050021;28;20227;-81
2023/02/27 06:52:41;;;;;;;0.50;0.50;;;-2.30;99.90;;;;;;5053084;28;20230;-80
2023/02/27 06:55:09;;;;;;;0.50;0.50;;;-2.20;99.90;;;;;;5042772;28;20222;-79
2023/02/27 06:57:36;;;;;;;0.50;0.40;;;-2.10;99.90;;;;;;5048298;28;20344;-79
2023/02/27 07:00:05;;;;;;;0.50;0.50;;;-1.90;99.90;;;;;;5058334;28;20199;-81
2023/02/27 07:02:32;;;;;;;0.50;0.40;;;-1.80;99.90;;;;;;5058422;28;20191;-80
2023/02/27 07:04:59;;;;;;;0.50;0.50;;;-1.70;99.90;;;;;;5045315;28;20226;-80
2023/02/27 07:07:28;;;;;;;0.50;0.40;;;-1.50;99.90;;;;;;5043042;28;20222;-79
2023/02/27 07:09:54;;;;;;;1.13;1.13;;;-1.40;99.90;;;;;;5039251;28;20938;-79
2023/02/27 07:12:21;;;;;;;0.50;0.50;;;-1.20;99.90;;;;;;5045490;28;20622;-80
2023/02/27 07:14:49;;;;;;;0.50;0.40;;;-1.10;99.90;;;;;;5051876;28;20215;-79
2023/02/27 07:17:15;;;;;;;0.50;0.47;;;-1.00;99.90;;;;;;5052543;28;20195;-75
2023/02/27 07:19:42;;;;;;;0.50;0.47;;;-0.90;99.90;;;;;;5058735;28;20274;-79
2023/02/27 07:22:09;;;;;;;0.50;0.40;;;-0.80;99.90;;;;;;5054644;28;20675;-78
2023/02/27 07:24:37;;;;;;;0.50;0.40;;;-0.70;99.90;;;;;;5052198;28;20283;-79
2023/02/27 07:27:04;;;;;;;0.50;0.50;;;-0.50;99.90;;;;;;5040765;28;20227;-81
2023/02/27 07:29:31;;;;;;;0.50;0.50;;;-0.40;99.90;;;;;;5041314;28;20274;-79
2023/02/27 07:31:59;;;;;;;0.50;0.40;;;-0.40;99.90;;;;;;5040549;28;20571;-80
2023/02/27 07:34:26;;;;;;;0.50;0.50;;;-0.30;99.90;;;;;;5049987;28;20188;-80
2023/02/27 07:36:53;;;;;;;1.58;1.48;;;-0.20;99.90;;;;;;5041745;28;20565;-79
2023/02/27 07:39:19;;;;;;;0.50;0.50;;;0.00;99.90;;;;;;5045477;28;20195;-76
2023/02/27 07:41:48;;;;;;;0.50;0.50;;;0.70;99.90;;;;;;5053085;28;20254;-80
2023/02/27 07:44:15;;;;;;;0.50;0.50;;;1.30;99.90;;;;;;5057242;28;20282;-79
2023/02/27 07:46:43;;;;;;;0.95;0.93;;;1.80;99.90;;;;;;5041693;28;20259;-80
2023/02/27 07:49:10;;;;;;;0.70;0.68;;;2.30;99.90;;;;;;5043919;28;20290;-80
2023/02/27 07:51:37;;;;;;;0.50;0.50;;;3.00;99.90;;;;;;5054401;28;20191;-80
2023/02/27 07:54:04;;;;;;;0.50;0.45;;;3.50;99.90;;;;;;5060617;28;20678;-79
2023/02/27 07:56:31;;;;;;;0.50;0.47;;;3.90;99.90;;;;;;5042886;28;20243;-79
2023/02/27 07:58:59;;;;;;;0.90;0.90;;;4.30;99.90;;;;;;5052395;28;20646;-81
2023/02/27 08:01:26;;;;;;;0.50;0.40;;;5.00;99.90;;;;;;5043799;28;20210;-81
2023/02/27 08:03:53;;;;;;;0.50;0.40;;;5.40;99.90;;;;;;5042511;28;20314;-79
2023/02/27 08:06:20;;;;;;;0.50;0.40;;;5.60;99.90;;;;;;5053471;28;20223;-80
2023/02/27 08:08:47;;;;;;;0.50;0.40;;;6.00;99.90;;;;;;5055917;28;20187;-81
2023/02/27 08:11:14;;;;;;;1.33;0.70;;;6.90;99.90;;;;;;5047063;28;20195;-80
2023/02/27 08:13:41;;;;;;;0.50;0.40;;;7.60;99.90;;;;;;5043646;28;20234;-79
2023/02/27 08:16:09;;;;;;;0.93;0.93;;;8.50;99.90;;;;;;5045960;28;20563;-80
2023/02/27 08:18:36;;;;;;;0.50;0.50;;;9.20;95.50;;;;;;5052168;28;20262;-80
2023/02/27 08:21:04;;;;;;;2.25;1.65;;;9.70;92.80;;;;;;5048417;28;20350;-80
2023/02/27 08:23:33;;;;;;;0.50;0.40;;;10.50;91.40;;;;;;5056312;28;20210;-81
2023/02/27 08:26:00;;;;;;;0.50;0.40;;;11.80;87.20;;;;;;5045899;28;20310;-81
2023/02/27 08:28:27;;;;;;;0.50;0.40;;;12.20;79.20;;;;;;5056479;28;20187;-80
2023/02/27 08:30:55;;;;;;;0.60;0.60;;;13.20;74.70;;;;;;5056999;28;20194;-81
2023/02/27 08:33:23;;;;;;;0.50;0.40;;;14.30;72.10;;;;;;5047612;28;20466;-80
2023/02/27 08:35:50;;;;;;;0.50;0.40;;;15.00;67.70;;;;;;5054431;28;20514;-78
2023/02/27 08:38:17;;;;;;;0.50;0.40;;;15.80;65.50;;;;;;5043585;28;20564;-80
2023/02/27 08:40:44;;;;;;;0.90;0.67;;;16.90;63.50;;;;;;5045956;28;20514;-78
2023/02/27 08:43:11;;;;;;;2.97;2.77;;;17.80;58.60;;;;;;5057648;28;20492;-79
2023/02/27 08:45:38;;;;;;;0.93;0.93;;;17.60;56.70;;;;;;5052665;28;20492;-79
2023/02/27 08:48:05;;;;;;;1.03;1.03;;;18.20;57.70;;;;;;5050824;28;20527;-80
2023/02/27 08:50:34;;;;;;;0.60;0.53;;;19.40;55.50;;;;;;5051303;28;20532;-81
2023/02/27 08:53:01;;;;;;;0.73;0.73;;;20.20;52.80;;;;;;5045795;28;20515;-81
2023/02/27 08:55:28;;;;;;;1.00;0.50;;;20.30;51.80;;;;;;5046402;28;20442;-81
2023/02/27 08:57:55;;;;;;;0.50;0.40;;;21.30;51.60;;;;;;5057611;28;20446;-80
2023/02/27 09:00:23;;;;;;;0.50;0.30;;;21.80;49.00;;;;;;5058952;28;21007;-77
2023/02/27 09:02:50;;;;;;;1.47;1.27;;;21.70;48.20;;;;;;5046725;28;20964;-79
2023/02/27 09:05:17;;;;;;;0.50;0.40;;;21.30;47.30;;;;;;5042009;28;20508;-79
2023/02/27 09:07:46;;;;;;;0.60;0.40;;;21.30;47.70;;;;;;5042675;28;20496;-80
2023/02/27 09:10:13;;;;;;;0.60;0.50;;;22.10;47.50;;;;;;5040441;28;20462;-80
2023/02/27 09:12:40;;;;;;;0.50;0.30;;;22.50;47.30;;;;;;5048227;28;20484;-79
2023/02/27 09:15:08;;;;;;;0.50;0.40;;;23.10;46.40;;;;;;5046841;28;20485;-80
2023/02/27 09:17:35;;;;;;;0.60;0.43;;;23.00;45.60;;;;;;5045916;28;21116;-80
2023/02/27 09:20:03;;;;;;;0.50;0.40;;;22.40;44.20;;;;;;5060847;28;20465;-79
2023/02/27 09:22:30;;;;;;;1.73;1.23;;;22.00;45.40;;;;;;5048393;28;20444;-78
2023/02/27 09:24:59;;;;;;;0.70;0.70;;;22.10;44.40;;;;;;5048005;28;20502;-79
2023/02/27 09:27:25;;;;;;;0.50;0.30;;;21.10;45.00;;;;;;5048784;28;20429;-78
2023/02/27 09:29:55;;;;;;;0.63;0.50;;;20.80;46.30;;;;;;5061923;28;20445;-79
2023/02/27 09:32:22;;;;;;;0.50;0.40;;;21.70;46.20;;;;;;5058652;28;20517;-79
2023/02/27 09:34:49;;;;;;;0.50;0.40;;;22.00;46.10;;;;;;5043910;28;20464;-81
2023/02/27 09:37:18;;;;;;;2.30;0.87;;;22.30;45.70;;;;;;5039412;28;20441;-78
2023/02/27 09:39:45;;;;;;;0.50;0.40;;;22.10;43.70;;;;;;5059671;28;20479;-80
2023/02/27 09:42:19;;;;;;;0.50;0.40;;;20.60;43.80;;;;;;5058316;28;20440;-79
2023/02/27 09:44:49;;;;;;;0.50;0.40;;;20.50;45.70;;;;;;5053230;28;20477;-79
2023/02/27 09:47:21;;;;;;;0.80;0.80;;;20.20;45.10;;;;;;5060729;28;20994;-79
2023/02/27 09:49:57;;;;;;;2.30;0.60;;;19.40;45.70;;;;;;5056774;28;20476;-79
2023/02/27 09:52:25;;;;;;;0.50;0.40;;;18.50;45.20;;;;;;5044064;28;20995;-76
2023/02/27 09:54:54;;;;;;;0.50;0.50;;;17.60;46.70;;;;;;5052246;28;20868;-78
2023/02/27 09:57:33;;;;;;;0.50;0.40;;;16.30;48.00;;;;;;5053304;28;20469;-79
2023/02/27 10:00:08;;;;;;;1.13;1.13;;;15.80;49.60;;;;;;5044991;28;20434;-79
2023/02/27 10:02:47;;;;;;;0.50;0.50;;;15.00;49.80;;;;;;5044524;28;20435;-81
2023/02/27 10:05:23;;;;;;;0.80;0.80;;;14.20;50.70;;;;;;5058181;28;20503;-77
2023/02/27 10:08:00;;;;;;;0.50;0.40;;;13.70;51.70;;;;;;5042090;28;20434;-80
2023/02/27 10:10:32;;;;;;;0.60;0.43;;;13.30;52.50;;;;;;5046750;28;20437;-80
2023/02/27 10:13:22;;;;;;;0.50;0.40;;;12.70;53.00;;;;;;5054164;28;20448;-80
2023/02/27 10:15:52;;;;;;;0.60;0.50;;;11.80;53.90;;;;;;5036584;28;20460;-80
2023/02/27 10:18:23;;;;;;;0.50;0.40;;;11.10;55.40;;;;;;5049028;28;20462;-77
2023/02/27 10:20:53;;;;;;;0.50;0.40;;;10.80;56.50;;;;;;5041109;28;20195;-79
2023/02/27 10:23:33;;;;;;;0.73;0.73;;;11.00;58.00;;;;;;5050820;28;20199;-81
2023/02/27 10:26:01;;;;;;;1.10;1.10;;;11.40;58.50;;;;;;5045131;28;20219;-79
2023/02/27 10:28:30;;;;;;;0.50;0.40;;;11.70;58.00;;;;;;5040709;28;20199;-79
2023/02/27 10:31:00;;;;;;;0.50;0.43;;;11.60;57.40;;;;;;5048144;28;20913;-81
2023/02/27 10:33:33;;;;;;;2.35;0.70;;;11.80;57.50;;;;;;5044213;28;20429;-79
2023/02/27 10:36:01;;;;;;;0.50;0.40;;;11.30;57.20;;;;;;5052373;28;20215;-80
2023/02/27 10:38:33;;;;;;;0.50;0.40;;;11.50;58.00;;;;;;5048189;28;20469;-80
2023/02/27 10:41:02;;;;;;;0.60;0.50;;;10.90;57.80;;;;;;5056415;28;20537;-79
2023/02/27 10:43:30;;;;;;;1.17;0.70;;;10.80;58.10;;;;;;5060485;28;20460;-79
2023/02/27 10:46:00;;;;;;;0.50;0.50;;;10.80;58.90;;;;;;5061901;28;20501;-80
2023/02/27 10:48:27;;;;;;;0.87;0.70;;;11.00;59.00;;;;;;5061003;28;20487;-80
2023/02/27 10:51:23;;;;;;;0.50;0.40;;;11.40;58.20;;;;;;5051919;28;20948;-80
2023/02/27 10:53:51;;;;;;;0.93;0.93;;;11.60;57.50;;;;;;5034586;28;20434;-79
2023/02/27 10:56:25;;;;;;;0.50;0.40;;;11.20;57.10;;;;;;5047411;28;20484;-78
2023/02/27 10:59:03;;;;;;;0.60;0.50;;;12.10;57.50;;;;;;5048490;28;20465;-80
2023/02/27 11:01:42;;;;;;;1.23;0.70;;;12.60;56.50;;;;;;5053137;28;20437;-78
2023/02/27 11:04:10;;;;;;;0.60;0.40;;;13.40;55.70;;;;;;5056718;28;20492;-79
2023/02/27 11:06:40;;;;;;;1.23;0.93;;;14.00;55.50;;;;;;5053550;28;20552;-79
2023/02/27 11:09:20;;;;;;;0.50;0.40;;;14.20;53.90;;;;;;5055565;28;20492;-78
2023/02/27 11:11:47;;;;;;;0.90;0.50;;;15.40;54.60;;;;;;5062656;28;20434;-78
2023/02/27 11:14:27;;;;;;;0.70;0.50;;;16.50;52.30;;;;;;5052962;28;20460;-78
2023/02/27 11:16:56;;;;;;;0.50;0.40;;;16.70;51.30;;;;;;5058706;28;20441;-78
2023/02/27 11:19:32;;;;;;;0.50;0.40;;;16.70;50.10;;;;;;5054667;28;20502;-78
2023/02/27 11:22:14;;;;;;;5.17;0.60;;;16.50;50.00;;;;;;5051057;28;20954;-77
2023/02/27 11:24:41;;;;;;;0.50;0.43;;;15.90;49.20;;;;;;5046578;28;20481;-79
2023/02/27 11:27:20;;;;;;;2.63;0.67;;;15.20;50.30;;;;;;5054105;28;20434;-78
2023/02/27 11:29:57;;;;;;;0.50;0.40;;;15.20;50.90;;;;;;5051385;28;20457;-80
2023/02/27 11:32:26;;;;;;;0.50;0.40;;;14.70;50.50;;;;;;5050102;28;20452;-79
2023/02/27 11:34:53;;;;;;;0.50;0.40;;;14.70;51.50;;;;;;5058697;28;20965;-80
2023/02/27 11:37:29;;;;;;;0.50;0.40;;;14.60;51.20;;;;;;5064691;28;20932;-78
2023/02/27 11:40:05;;;;;;;0.50;0.40;;;15.30;51.40;;;;;;5053983;28;20444;-79
2023/02/27 11:42:34;;;;;;;0.50;0.40;;;15.00;50.60;;;;;;5044507;28;20441;-79
2023/02/27 11:45:04;;;;;;;1.13;1.03;;;14.10;50.80;;;;;;5051430;28;20470;-78
2023/02/27 11:47:34;;;;;;;0.97;0.87;;;13.40;51.70;;;;;;5055550;28;20437;-78
2023/02/27 11:50:33;;;;;;;0.50;0.40;;;12.50;52.80;;;;;;5064269;28;20454;-79
2023/02/27 11:53:15;;;;;;;0.50;0.40;;;11.70;53.30;;;;;;5052135;28;20525;-79
2023/02/27 11:55:43;;;;;;;0.50;0.50;;;10.60;54.20;;;;;;5044595;28;20446;-78
2023/02/27 11:58:15;;;;;;;0.50;0.40;;;10.20;55.40;;;;;;5051830;28;20929;-79
2023/02/27 12:00:45;;;;;;;0.50;0.40;;;10.30;57.50;;;;;;5054556;28;20433;-78
2023/02/27 12:03:19;;;;;;;0.50;0.40;;;10.80;58.50;;;;;;5050180;28;20436;-78
2023/02/27 12:05:49;;;;;;;3.30;1.07;;;11.70;57.00;;;;;;5058594;28;20478;-79
2023/02/27 12:08:22;;;;;;;0.50;0.40;;;12.60;55.10;;;;;;5043577;28;20434;-79
2023/02/27 12:10:53;;;;;;;0.60;0.50;;;12.70;54.00;;;;;;5058328;28;20446;-79
2023/02/27 12:13:23;;;;;;;0.60;0.60;;;13.30;54.00;;;;;;5053807;28;20868;-79
2023/02/27 12:15:56;;;;;;;0.60;0.50;;;13.70;52.80;;;;;;5047708;28;20488;-79
2023/02/27 12:18:28;;;;;;;0.50;0.40;;;14.00;51.80;;;;;;5053121;28;20477;-79
2023/02/27 12:20:59;;;;;;;0.50;0.40;;;13.90;51.50;;;;;;5050323;28;20461;-79
2023/02/27 12:23:33;;;;;;;1.30;0.60;;;14.10;52.20;;;;;;5054155;28;20444;-79
2023/02/27 12:26:05;;;;;;;0.60;0.50;;;13.90;51.80;;;;;;5054214;28;21042;-78
2023/02/27 12:28:48;;;;;;;0.50;0.30;;;14.00;51.10;;;;;;5055040;28;20468;-79
2023/02/27 12:31:39;;;;;;;4.93;0.93;;;14.30;51.50;;;;;;5052794;28;20917;-78
2023/02/27 12:34:24;;;;;;;0.60;0.53;;;14.10;50.90;;;;;;5052420;28;20473;-79
2023/02/27 12:36:53;;;;;;;0.57;0.47;;;13.40;50.50;;;;;;5044198;28;20537;-79
2023/02/27 12:39:23;;;;;;;0.70;0.53;;;12.80;51.60;;;;;;5045386;28;20474;-78
2023/02/27 12:42:19;;;;;;;0.80;0.80;;;12.20;52.50;;;;;;5053717;28;20464;-78
2023/02/27 12:45:03;;;;;;;0.80;0.50;;;12.00;53.20;;;;;;5036511;28;20482;-78
2023/02/27 12:47:38;;;;;;;0.50;0.40;;;11.90;53.30;;;;;;5065628;28;20479;-79
2023/02/27 12:50:12;;;;;;;0.50;0.40;;;11.50;53.70;;;;;;5055735;28;20441;-79
2023/02/27 12:52:49;;;;;;;0.50;0.40;;;11.60;55.10;;;;;;5038471;28;20429;-80
2023/02/27 12:55:20;;;;;;;0.60;0.57;;;12.50;56.50;;;;;;5045960;28;20456;-76
2023/02/27 12:58:22;;;;;;;1.33;1.23;;;12.60;55.10;;;;;;5047733;28;20503;-79
2023/02/27 13:00:53;;;;;;;0.50;0.43;;;11.50;54.10;;;;;;5041978;28;20488;-78
2023/02/27 13:03:25;;;;;;;0.60;0.40;;;11.10;55.70;;;;;;5044693;28;20436;-78
2023/02/27 13:06:00;;;;;;;4.73;0.60;;;11.10;56.30;;;;;;5056072;28;20484;-79
2023/02/27 13:09:08;;;;;;;0.50;0.37;;;11.20;55.90;;;;;;5054078;28;20440;-79